• Join FlightAware (Why Join?)
  • Login
  • US Flag 
08:23AM EDT


 

Airport Tracker/Info


-or-


 

Live Flight TrackerFlight Track Log ✈ EGF4152 ✈ 11-May-2013 ✈ KAZO - KORD

Flight Track Log - Related Links

Times and Time Zones

All times are in EDT time to prevent confusion due to time zone crossing. See the EGF4152 flight status page for this flight to view local times or setup timezone preferences in your user account.

Time Position Orientation Groundspeed Altitude Reporting Facility
EDT Latitude Longitude Course Direction KTS MPH feet Rate Location/Type
07:21AM 42.2742 -85.5453 294° West 164 189 2,500  Level Chicago Center
07:22AM 42.3242 -85.5711 339° North 226 260 4,800 2,520 Climbing Chicago Center
07:23AM 42.3231 -85.7795 304° West  Level FlightAware Approximate
07:23AM 42.3486 -85.6586 291° West 247 284 7,600  Level Chicago Center
07:24AM 42.3521 -85.8542 304° West  Level FlightAware Approximate
07:24AM 42.3731 -85.7506 290° West 254 292 10,300  Level Chicago Center
07:25AM 42.3874 -85.9268 298° West  Level FlightAware Approximate
07:25AM 42.3983 -85.8431 290° West 261 300 12,000  Level Chicago Center
07:26AM 42.4178 -86.0033 294° West  Level FlightAware Approximate
07:26AM 42.4247 -85.9494 289° West 292 336 13,900  Level Chicago Center
07:27AM 42.4536 -86.0578 290° West 303 349 15,600 1,020 Climbing Chicago Center
07:28AM 42.4578 -86.1817 273° West 329 379 16,000 180 Climbing Chicago Center
07:29AM 42.4569 -86.3114 270° West 342 394 16,000  Level Chicago Center
07:30AM 42.4564 -86.4411 270° West 343 395 16,000 -300 Level Chicago Center
07:31AM 42.4567 -86.5697 270° West 340 391 15,500 -1,020 Descending Chicago Center
07:32AM 42.4569 -86.7028 270° West 351 404 14,000 -1,440 Descending Chicago Center
07:33AM 42.4578 -86.8339 271° West 350 403 12,600 -1,500 Descending Chicago Center
07:34AM 42.4567 -86.9614 269° West 341 392 11,000 -1,260 Descending Chicago Center
07:35AM 42.4556 -87.0803 269° West 320 368 10,100 -840 Descending Chicago Center
07:36AM 42.4381 -87.1764 256° West 269 310 9,400 -600 Descending Chicago Center
07:37AM 42.4117 -87.2708 249° West 268 308 9,000 -780 Descending Chicago Center
07:38AM 42.3814 -87.3803 250° West 261 300 7,900 -1,020 Descending Chicago Center
07:39AM 42.3261 -87.4175 206° Southwest 276 318 7,000 -1,020 Descending Chicago Center
07:40AM 42.2422 -87.4256 184° South 274 315 5,900 -1,080 Descending Chicago Center
07:41AM 42.1681 -87.4333 184° South 268 308 4,900 -1,020 Descending Chicago Center
07:42AM 42.1167 -87.4333 180° South 265 305 4,200 -600 Descending Chicago TRACON
07:43AM 42.0500 -87.4500 191° South 263 303 4,000 -120 Descending Chicago TRACON
07:44AM 42.0000 -87.5000 217° Southwest 251 289 4,000  Level Chicago TRACON
07:45AM 41.9833 -87.5667 251° West 216 249 4,000  Level Chicago TRACON
07:46AM 41.9833 -87.6333 270° West 187 215 4,000 -240 Level Chicago TRACON
07:46AM 41.9833 -87.7000 270° West 183 211 3,600 -780 Descending Chicago TRACON
07:47AM 41.9833 -87.7667 270° West 179 206 2,600 -1,020 Descending Chicago TRACON